createdAt,value
2018-12-14T00:03:20.449Z,19.77
2018-12-14T00:08:25.254Z,20.93
2018-12-14T00:13:28.226Z,18.40
2018-12-14T00:18:31.302Z,18.20
2018-12-14T00:23:34.147Z,17.67
2018-12-14T00:28:36.947Z,19.27
2018-12-14T00:33:39.795Z,18.50
2018-12-14T00:38:42.747Z,17.87
2018-12-14T00:43:45.440Z,18.10
2018-12-14T00:54:27.256Z,14.73
2018-12-14T00:59:30.062Z,14.77
2018-12-14T01:04:32.953Z,14.57
2018-12-14T01:09:35.907Z,14.20
2018-12-14T01:14:40.845Z,14.60
2018-12-14T01:19:43.935Z,14.97
2018-12-14T01:24:47.630Z,15.67
2018-12-14T01:29:50.413Z,13.73
2018-12-14T01:34:53.230Z,13.87
2018-12-14T01:39:55.974Z,14.67
2018-12-14T01:44:58.782Z,14.40
2018-12-14T01:50:01.808Z,15.37
2018-12-14T01:55:05.445Z,14.37
2018-12-14T02:00:08.486Z,15.03
2018-12-14T02:05:11.369Z,14.77
2018-12-14T02:10:14.257Z,15.27
2018-12-14T02:15:17.145Z,15.23
2018-12-14T02:20:19.895Z,16.27
2018-12-14T02:25:22.797Z,15.93
2018-12-14T02:30:46.582Z,16.53
2018-12-14T02:41:02.183Z,17.27
2018-12-14T02:46:05.074Z,15.47
2018-12-14T02:51:07.845Z,16.33
2018-12-14T02:56:10.822Z,14.17
2018-12-14T03:01:13.688Z,13.10
2018-12-14T03:06:16.733Z,14.17
2018-12-14T03:11:19.478Z,13.77
2018-12-14T03:16:22.271Z,15.17
2018-12-14T03:21:25.020Z,15.07
2018-12-14T03:26:27.831Z,15.60
2018-12-14T03:31:30.672Z,15.77
2018-12-14T03:36:33.481Z,16.93
2018-12-14T03:41:36.594Z,17.43
2018-12-14T03:46:39.486Z,17.70
2018-12-14T03:51:42.581Z,17.33
2018-12-14T03:56:45.649Z,17.53
2018-12-14T04:01:48.510Z,17.87
2018-12-14T04:06:51.357Z,18.27
2018-12-14T04:11:54.193Z,17.63
2018-12-14T04:16:57.349Z,17.47
2018-12-14T04:22:00.168Z,18.53
2018-12-14T04:27:03.038Z,18.13
2018-12-14T04:32:06.829Z,18.67
2018-12-14T04:37:09.594Z,19.13
2018-12-14T04:42:12.229Z,18.93
2018-12-14T04:47:15.469Z,18.90
2018-12-14T04:52:18.241Z,21.37
2018-12-14T04:57:20.980Z,21.00
2018-12-14T05:02:23.657Z,16.60
2018-12-14T05:07:26.754Z,18.10
2018-12-14T05:12:29.683Z,18.37
2018-12-14T05:17:32.739Z,17.30
2018-12-14T05:22:35.561Z,18.57
2018-12-14T05:27:38.439Z,18.13
2018-12-14T05:32:41.233Z,19.37
2018-12-14T05:37:44.154Z,19.07
2018-12-14T05:42:47.866Z,20.70
2018-12-14T05:47:50.564Z,21.13
2018-12-14T05:52:53.294Z,20.33
2018-12-14T05:57:55.951Z,20.27
2018-12-14T06:02:58.719Z,19.77
2018-12-14T06:08:01.402Z,20.67
2018-12-14T06:13:09.090Z,19.20
2018-12-14T06:18:09.182Z,21.33
2018-12-14T06:23:11.967Z,20.47
2018-12-14T06:28:14.641Z,20.77
2018-12-14T06:33:17.432Z,20.37
2018-12-14T06:38:20.293Z,19.40
2018-12-14T06:43:23.572Z,20.53
2018-12-14T06:48:26.448Z,20.17
2018-12-14T06:53:29.751Z,19.90
2018-12-14T06:58:32.703Z,21.87
2018-12-14T07:03:35.709Z,20.60
2018-12-14T07:08:38.528Z,23.03
2018-12-14T07:13:41.337Z,20.87
2018-12-14T07:18:45.694Z,21.53
2018-12-14T07:23:48.449Z,20.30
2018-12-14T07:28:52.229Z,19.90
2018-12-14T07:33:54.949Z,20.27
2018-12-14T07:38:57.997Z,20.83
2018-12-14T07:44:00.849Z,22.03
2018-12-14T07:49:03.894Z,22.47
2018-12-14T07:54:06.877Z,23.93
2018-12-14T07:59:10.508Z,22.70
2018-12-14T08:04:13.618Z,23.80
2018-12-14T08:09:16.617Z,22.13
2018-12-14T08:14:19.625Z,23.30
2018-12-14T08:19:22.291Z,21.57
2018-12-14T08:24:25.161Z,23.77
2018-12-14T08:29:28.272Z,22.43
2018-12-14T08:34:31.138Z,21.53
2018-12-14T08:39:34.612Z,23.47
2018-12-14T08:44:37.632Z,21.40
2018-12-14T08:49:40.850Z,21.33
2018-12-14T08:54:43.689Z,20.30
2018-12-14T08:59:46.421Z,21.03
2018-12-14T09:04:49.452Z,19.83
2018-12-14T09:09:52.269Z,18.57
2018-12-14T09:14:54.993Z,19.17
2018-12-14T09:19:58.225Z,18.60
2018-12-14T09:25:02.048Z,19.57
2018-12-14T09:30:06.261Z,18.80
2018-12-14T09:35:09.449Z,18.57
2018-12-14T09:40:12.633Z,17.50
2018-12-14T09:45:15.836Z,18.17
2018-12-14T09:50:18.988Z,17.73
2018-12-14T09:55:21.848Z,17.30
2018-12-14T10:00:24.790Z,16.43
2018-12-14T10:05:27.707Z,15.90
2018-12-14T10:10:30.725Z,14.80
2018-12-14T10:15:33.712Z,14.53
2018-12-14T10:20:36.764Z,14.77
2018-12-14T10:25:39.962Z,14.40
2018-12-14T10:30:42.813Z,15.07
2018-12-14T10:35:45.792Z,13.13
2018-12-14T10:40:49.057Z,14.13
2018-12-14T10:45:52.801Z,13.53
2018-12-14T10:50:55.883Z,12.27
2018-12-14T10:55:58.955Z,12.80
2018-12-14T11:01:07.758Z,12.87
2018-12-14T11:06:10.743Z,11.80
2018-12-14T11:11:13.675Z,12.07
2018-12-14T11:16:17.273Z,14.10
2018-12-14T11:21:20.206Z,10.60
2018-12-14T11:26:23.092Z,10.73
2018-12-14T11:31:25.916Z,10.80
2018-12-14T11:36:29.438Z,11.10
2018-12-14T11:41:32.566Z,10.83
2018-12-14T11:46:35.184Z,10.67
2018-12-14T11:51:38.761Z,10.80
2018-12-14T11:56:41.573Z,10.60
2018-12-14T12:01:44.395Z,11.60
2018-12-14T12:06:47.345Z,11.27
2018-12-14T12:11:50.050Z,10.37
2018-12-14T12:16:52.922Z,11.50
2018-12-14T12:21:55.922Z,10.40
2018-12-14T12:26:58.764Z,10.73
2018-12-14T12:32:01.776Z,10.20
2018-12-14T12:37:04.790Z,11.73
2018-12-14T12:42:07.620Z,9.67
2018-12-14T12:47:11.613Z,10.47
2018-12-14T12:52:14.607Z,10.40
2018-12-14T12:57:17.821Z,9.93
2018-12-14T13:02:20.653Z,9.90
2018-12-14T13:07:23.848Z,9.93
2018-12-14T13:12:27.212Z,9.20
2018-12-14T13:17:29.969Z,9.00
2018-12-14T13:22:32.701Z,8.63
2018-12-14T13:27:35.724Z,9.83
2018-12-14T13:32:38.783Z,10.60
2018-12-14T13:37:41.886Z,10.40
2018-12-14T13:42:44.885Z,11.33
2018-12-14T13:47:48.020Z,13.80
2018-12-14T13:52:50.809Z,13.47
2018-12-14T13:57:53.839Z,12.83
2018-12-14T14:02:56.639Z,12.47
2018-12-14T14:07:59.633Z,12.30
2018-12-14T14:13:02.594Z,12.67
2018-12-14T14:18:05.562Z,12.57
2018-12-14T14:23:08.745Z,13.53
2018-12-14T14:28:11.448Z,13.17
2018-12-14T14:33:14.574Z,12.97
2018-12-14T14:38:18.214Z,13.67
2018-12-14T14:43:21.351Z,14.90
2018-12-14T14:48:24.181Z,15.27
2018-12-14T14:53:27.000Z,15.17
2018-12-14T14:58:29.896Z,15.37
2018-12-14T15:03:32.847Z,15.03
2018-12-14T15:08:35.879Z,16.97
2018-12-14T15:13:38.865Z,17.67
2018-12-14T15:18:41.812Z,19.07
2018-12-14T15:23:44.842Z,20.20
2018-12-14T15:28:47.529Z,19.60
2018-12-14T15:33:50.254Z,21.00
2018-12-14T15:38:53.132Z,20.50
2018-12-14T15:43:56.142Z,20.73
2018-12-14T15:48:59.055Z,20.90
2018-12-14T15:54:01.807Z,21.80
2018-12-14T15:59:05.042Z,22.13
2018-12-14T16:04:08.049Z,21.03
2018-12-14T16:09:11.116Z,23.40
2018-12-14T16:14:14.672Z,23.63
2018-12-14T16:19:17.721Z,23.57
2018-12-14T16:24:21.050Z,23.70
2018-12-14T16:29:24.097Z,23.23
2018-12-14T16:34:27.119Z,24.43
2018-12-14T16:39:30.405Z,23.37
2018-12-14T16:44:33.267Z,22.90
2018-12-14T16:49:36.008Z,23.73
2018-12-14T16:54:39.303Z,23.77
2018-12-14T16:59:42.388Z,24.27
2018-12-14T17:04:45.720Z,23.87
2018-12-14T17:09:48.923Z,25.13
2018-12-14T17:14:51.778Z,24.90
2018-12-14T17:19:55.005Z,25.43
2018-12-14T17:24:58.065Z,25.40
2018-12-14T17:30:00.833Z,26.47
2018-12-14T17:35:04.480Z,26.63
2018-12-14T17:40:07.371Z,26.00
2018-12-14T17:45:12.198Z,26.57
2018-12-14T17:50:15.003Z,26.07
2018-12-14T17:55:17.914Z,25.77
2018-12-14T18:00:20.664Z,26.20
2018-12-14T18:05:23.747Z,26.10
2018-12-14T18:10:26.496Z,26.30
2018-12-14T18:15:29.416Z,26.43
2018-12-14T18:20:32.052Z,27.37
2018-12-14T18:25:34.976Z,26.87
2018-12-14T18:30:37.773Z,29.00
2018-12-14T18:35:40.582Z,28.13
2018-12-14T18:40:43.479Z,28.93
2018-12-14T18:45:52.951Z,27.00
2018-12-14T18:50:51.254Z,28.17
2018-12-14T18:55:54.092Z,28.23
2018-12-14T19:00:57.036Z,28.73
2018-12-14T19:06:00.088Z,37.57
2018-12-14T19:11:02.984Z,29.03
2018-12-14T19:16:06.070Z,28.03
2018-12-14T19:21:08.796Z,29.67
2018-12-14T19:26:11.810Z,29.87
2018-12-14T19:31:14.537Z,28.83
2018-12-14T19:36:17.603Z,27.80
2018-12-14T19:41:20.603Z,29.57
2018-12-14T19:46:26.493Z,29.77
2018-12-14T19:51:29.565Z,28.70
2018-12-14T19:56:32.479Z,28.33
2018-12-14T20:01:35.638Z,27.57
2018-12-14T20:06:38.518Z,28.00
2018-12-14T20:11:41.399Z,28.13
2018-12-14T20:16:44.168Z,29.37
2018-12-14T20:21:47.092Z,29.20
2018-12-14T20:26:52.814Z,29.57
2018-12-14T20:31:55.892Z,28.63
2018-12-14T20:36:58.774Z,27.37
2018-12-14T20:42:01.698Z,28.23
2018-12-14T20:47:04.573Z,26.43
2018-12-14T20:52:07.586Z,26.20
2018-12-14T20:57:13.107Z,25.53
2018-12-14T21:02:15.898Z,24.40
2018-12-14T21:07:18.956Z,26.20
2018-12-14T21:12:21.815Z,24.47
2018-12-14T21:17:24.567Z,23.80
2018-12-14T21:22:27.260Z,22.63
2018-12-14T21:27:30.418Z,23.83
2018-12-14T21:32:33.325Z,23.03
2018-12-14T21:37:36.121Z,23.20
2018-12-14T21:42:39.002Z,23.07
2018-12-14T21:47:41.765Z,23.07
2018-12-14T21:52:44.537Z,24.90
2018-12-14T21:57:47.552Z,23.97
2018-12-14T22:02:50.421Z,23.53
2018-12-14T22:07:52.961Z,23.00
2018-12-14T22:12:55.845Z,23.60
2018-12-14T22:17:58.688Z,22.90
2018-12-14T22:23:01.526Z,22.30
2018-12-14T22:28:04.434Z,21.17
2018-12-14T22:33:07.484Z,20.70
2018-12-14T22:38:10.269Z,21.77
2018-12-14T22:43:13.155Z,19.77
2018-12-14T22:48:15.999Z,19.80
2018-12-14T22:53:18.887Z,20.57
2018-12-14T22:58:21.683Z,21.17
2018-12-14T23:03:24.616Z,20.00
2018-12-14T23:08:28.598Z,21.77
2018-12-14T23:13:31.549Z,20.33
2018-12-14T23:18:34.224Z,19.13
2018-12-14T23:23:37.101Z,20.00
2018-12-14T23:28:40.062Z,20.27
2018-12-14T23:33:42.849Z,17.93
2018-12-14T23:38:45.610Z,18.37
2018-12-14T23:43:48.442Z,18.13
2018-12-14T23:48:51.212Z,17.63
2018-12-14T23:53:54.274Z,17.33
2018-12-14T23:58:56.975Z,17.17
